createdAt,value
2022-11-17T00:01:39.153Z,13.94
2022-11-17T00:04:07.589Z,13.89
2022-11-17T00:06:35.970Z,14.13
2022-11-17T00:09:04.375Z,14.26
2022-11-17T00:11:52.731Z,14.43
2022-11-17T00:14:33.014Z,14.37
2022-11-17T00:17:12.159Z,14.38
2022-11-17T00:19:59.235Z,13.90
2022-11-17T00:22:31.983Z,14.26
2022-11-17T00:25:00.600Z,14.26
2022-11-17T00:27:29.084Z,14.53
2022-11-17T00:29:57.496Z,14.35
2022-11-17T00:32:44.715Z,13.95
2022-11-17T00:35:13.510Z,14.13
2022-11-17T00:38:02.250Z,14.00
2022-11-17T00:40:30.646Z,14.12
2022-11-17T00:42:59.082Z,13.99
2022-11-17T00:45:27.457Z,14.31
2022-11-17T00:47:55.837Z,14.20
2022-11-17T00:50:24.393Z,14.30
2022-11-17T00:52:52.851Z,14.05
2022-11-17T00:55:21.333Z,14.37
2022-11-17T00:57:49.719Z,14.22
2022-11-17T01:00:18.256Z,14.26
2022-11-17T01:02:46.709Z,14.21
2022-11-17T01:05:15.224Z,14.20
2022-11-17T01:07:43.658Z,14.08
2022-11-17T01:10:12.419Z,14.19
2022-11-17T01:12:40.803Z,14.08
2022-11-17T01:15:09.728Z,14.29
2022-11-17T01:17:38.083Z,13.91
2022-11-17T01:20:07.455Z,14.25
2022-11-17T01:22:36.786Z,13.98
2022-11-17T01:25:05.822Z,14.08
2022-11-17T01:27:34.385Z,14.15
2022-11-17T01:30:03.586Z,14.32
2022-11-17T01:32:31.914Z,14.60
2022-11-17T01:35:01.430Z,14.41
2022-11-17T01:37:29.788Z,14.49
2022-11-17T01:39:58.254Z,14.60
2022-11-17T01:42:27.242Z,14.67
2022-11-17T01:45:05.834Z,14.63
2022-11-17T01:47:52.522Z,14.54
2022-11-17T01:50:26.992Z,14.61
2022-11-17T01:52:59.663Z,14.61
2022-11-17T01:55:37.662Z,14.75
2022-11-17T01:58:12.694Z,14.86
2022-11-17T02:00:41.167Z,14.71
2022-11-17T02:03:09.880Z,14.80
2022-11-17T02:05:47.339Z,14.90
2022-11-17T02:08:17.026Z,14.85
2022-11-17T02:10:51.492Z,14.59
2022-11-17T02:13:21.735Z,14.44
2022-11-17T02:15:51.144Z,14.53
2022-11-17T02:18:20.872Z,14.97
2022-11-17T02:20:51.886Z,15.29
2022-11-17T02:23:42.220Z,14.84
2022-11-17T02:26:13.780Z,14.70
2022-11-17T02:28:49.789Z,14.76
2022-11-17T02:31:26.604Z,14.79
2022-11-17T02:34:11.384Z,14.96
2022-11-17T02:36:42.759Z,15.30
2022-11-17T02:39:31.392Z,15.37
2022-11-17T02:42:11.821Z,15.20
2022-11-17T02:44:58.249Z,15.02
2022-11-17T02:47:34.659Z,14.73
2022-11-17T02:50:07.014Z,14.72
2022-11-17T02:52:35.706Z,14.87
2022-11-17T02:55:09.720Z,14.84
2022-11-17T02:57:40.587Z,14.91
2022-11-17T03:00:17.599Z,15.04
2022-11-17T03:02:48.683Z,14.98
2022-11-17T03:05:34.938Z,14.99
2022-11-17T03:08:12.269Z,15.00
2022-11-17T03:10:45.466Z,15.06
2022-11-17T03:13:21.907Z,14.96
2022-11-17T03:16:10.570Z,14.90
2022-11-17T03:18:49.802Z,15.01
2022-11-17T03:21:26.123Z,15.15
2022-11-17T03:24:33.640Z,15.19
2022-11-17T03:27:15.372Z,15.26
2022-11-17T03:29:49.535Z,14.84
2022-11-17T03:32:18.380Z,14.66
2022-11-17T03:34:53.012Z,14.75
2022-11-17T03:37:23.823Z,14.81
2022-11-17T03:40:01.749Z,14.67
2022-11-17T03:42:35.226Z,14.74
2022-11-17T03:45:15.596Z,14.56
2022-11-17T03:47:45.208Z,14.42
2022-11-17T03:50:35.810Z,14.67
2022-11-17T03:53:06.044Z,14.83
2022-11-17T03:55:45.097Z,14.74
2022-11-17T03:58:19.410Z,14.71
2022-11-17T04:00:51.632Z,14.51
2022-11-17T04:03:23.192Z,14.69
2022-11-17T04:05:51.574Z,14.89
2022-11-17T04:08:20.108Z,15.14
2022-11-17T04:11:06.857Z,14.91
2022-11-17T04:13:54.289Z,15.07
2022-11-17T04:16:22.641Z,15.00
2022-11-17T04:18:54.459Z,15.04
2022-11-17T04:21:26.249Z,14.72
2022-11-17T04:23:54.685Z,15.00
2022-11-17T04:26:42.617Z,15.06
2022-11-17T04:29:11.000Z,14.88
2022-11-17T04:31:39.407Z,14.84
2022-11-17T04:34:07.878Z,14.90
2022-11-17T04:36:40.675Z,15.00
2022-11-17T04:39:09.518Z,15.03
2022-11-17T04:41:53.746Z,14.81
2022-11-17T04:44:27.381Z,14.76
2022-11-17T04:46:57.141Z,14.78
2022-11-17T04:49:26.243Z,14.69
2022-11-17T04:51:55.059Z,14.89
2022-11-17T04:54:24.746Z,14.96
2022-11-17T04:56:54.706Z,14.85
2022-11-17T04:59:23.983Z,14.89
2022-11-17T05:01:52.432Z,14.69
2022-11-17T05:04:39.632Z,14.90
2022-11-17T05:07:09.106Z,14.61
2022-11-17T05:09:37.731Z,14.80
2022-11-17T05:12:25.431Z,14.77
2022-11-17T05:14:53.783Z,14.70
2022-11-17T05:17:22.197Z,14.76
2022-11-17T05:19:50.566Z,14.42
2022-11-17T05:22:41.066Z,14.64
2022-11-17T05:25:09.655Z,14.69
2022-11-17T05:27:38.128Z,15.02
2022-11-17T05:30:08.021Z,14.90
2022-11-17T05:32:36.415Z,15.17
2022-11-17T05:35:05.275Z,15.29
2022-11-17T05:37:33.627Z,15.34
2022-11-17T05:40:02.036Z,15.43
2022-11-17T05:42:30.351Z,15.40
2022-11-17T05:44:58.704Z,15.45
2022-11-17T05:47:27.094Z,15.29
2022-11-17T05:49:55.460Z,15.29
2022-11-17T05:52:23.825Z,15.36
2022-11-17T05:54:52.259Z,15.31
2022-11-17T05:57:28.132Z,15.44
2022-11-17T06:00:01.786Z,15.39
2022-11-17T06:02:38.155Z,15.36
2022-11-17T06:05:08.214Z,15.07
2022-11-17T06:07:37.108Z,15.17
2022-11-17T06:10:06.528Z,15.11
2022-11-17T06:12:34.928Z,15.12
2022-11-17T06:15:03.552Z,15.25
2022-11-17T06:17:35.901Z,15.38
2022-11-17T06:20:16.175Z,15.49
2022-11-17T06:22:48.367Z,15.08
2022-11-17T06:25:19.591Z,15.00
2022-11-17T06:27:50.425Z,14.90
2022-11-17T06:30:19.443Z,14.88
2022-11-17T06:32:49.889Z,14.85
2022-11-17T06:35:18.326Z,15.16
2022-11-17T06:37:46.775Z,15.21
2022-11-17T06:40:15.629Z,15.32
2022-11-17T06:43:02.666Z,15.17
2022-11-17T06:45:38.754Z,15.17
2022-11-17T06:48:09.011Z,14.92
2022-11-17T06:50:37.897Z,14.84
2022-11-17T06:53:08.794Z,14.94
2022-11-17T06:55:38.792Z,14.43
2022-11-17T06:58:11.533Z,14.37
2022-11-17T07:00:40.150Z,14.73
2022-11-17T07:03:10.849Z,14.86
2022-11-17T07:05:40.380Z,14.68
2022-11-17T07:08:09.471Z,14.69
2022-11-17T07:10:38.423Z,14.86
2022-11-17T07:13:07.130Z,14.62
2022-11-17T07:15:35.622Z,14.51
2022-11-17T07:18:04.211Z,14.26
2022-11-17T07:20:32.673Z,14.15
2022-11-17T07:23:01.262Z,14.37
2022-11-17T07:25:29.758Z,14.51
2022-11-17T07:27:59.746Z,14.23
2022-11-17T07:30:28.612Z,14.63
2022-11-17T07:33:00.904Z,14.36
2022-11-17T07:35:29.590Z,14.49
2022-11-17T07:37:59.600Z,14.62
2022-11-17T07:40:29.136Z,14.29
2022-11-17T07:42:57.644Z,14.33
2022-11-17T07:45:31.391Z,14.01
2022-11-17T07:48:02.586Z,14.31
2022-11-17T07:50:31.439Z,14.44
2022-11-17T07:53:00.155Z,14.47
2022-11-17T07:55:28.714Z,14.41
2022-11-17T07:57:59.140Z,14.57
2022-11-17T08:00:30.515Z,14.08
2022-11-17T08:03:04.111Z,13.99
2022-11-17T08:05:43.098Z,14.22
2022-11-17T08:08:13.632Z,14.26
2022-11-17T08:10:43.116Z,14.20
2022-11-17T08:13:14.098Z,13.62
2022-11-17T08:15:42.609Z,14.13
2022-11-17T08:18:11.176Z,14.01
2022-11-17T08:20:39.775Z,13.69
2022-11-17T08:23:09.277Z,13.71
2022-11-17T08:25:37.722Z,13.87
2022-11-17T08:28:06.210Z,13.84
2022-11-17T08:30:35.913Z,13.84
2022-11-17T08:33:04.431Z,13.40
2022-11-17T08:35:37.379Z,13.98
2022-11-17T08:38:06.889Z,13.87
2022-11-17T08:40:35.382Z,14.06
2022-11-17T08:43:04.215Z,13.92
2022-11-17T08:45:32.645Z,14.15
2022-11-17T08:48:01.156Z,13.66
2022-11-17T08:50:29.577Z,13.78
2022-11-17T08:52:58.051Z,13.71
2022-11-17T08:55:26.725Z,14.15
2022-11-17T08:57:55.222Z,14.12
2022-11-17T09:00:24.229Z,13.92
2022-11-17T09:02:52.840Z,14.12
2022-11-17T09:05:21.512Z,14.21
2022-11-17T09:07:50.168Z,14.17
2022-11-17T09:10:18.750Z,13.72
2022-11-17T09:12:47.214Z,13.88
2022-11-17T09:15:15.755Z,14.24
2022-11-17T09:17:47.783Z,14.28
2022-11-17T09:20:17.652Z,13.85
2022-11-17T09:22:46.537Z,13.88
2022-11-17T09:25:15.665Z,13.91
2022-11-17T09:27:44.075Z,14.18
2022-11-17T09:30:12.809Z,14.41
2022-11-17T09:32:41.234Z,14.47
2022-11-17T09:35:09.748Z,14.14
2022-11-17T09:37:38.392Z,14.23
2022-11-17T09:40:10.364Z,14.25
2022-11-17T09:42:40.323Z,14.18
2022-11-17T09:45:18.137Z,14.40
2022-11-17T09:48:40.185Z,14.28
2022-11-17T09:51:12.508Z,14.39
2022-11-17T09:54:13.480Z,14.87
2022-11-17T09:56:44.426Z,14.52
2022-11-17T09:59:18.368Z,14.35
2022-11-17T10:01:46.781Z,14.34
2022-11-17T10:04:16.933Z,14.11
2022-11-17T10:06:49.303Z,14.11
2022-11-17T10:09:26.365Z,14.45
2022-11-17T10:12:02.961Z,14.68
2022-11-17T10:14:33.099Z,14.61
2022-11-17T10:17:01.637Z,14.56
2022-11-17T10:19:36.606Z,14.83
2022-11-17T10:22:05.365Z,14.33
2022-11-17T10:24:36.043Z,14.68
2022-11-17T10:27:15.180Z,14.75
2022-11-17T10:30:00.647Z,14.89
2022-11-17T10:32:35.726Z,15.00
2022-11-17T10:35:25.532Z,15.15
2022-11-17T10:37:57.666Z,15.01
2022-11-17T10:40:27.743Z,15.48
2022-11-17T10:43:17.725Z,15.05
2022-11-17T10:45:49.279Z,15.38
2022-11-17T10:48:35.779Z,15.35
2022-11-17T10:51:24.202Z,15.21
2022-11-17T10:54:01.915Z,15.35
2022-11-17T10:56:33.851Z,15.40
2022-11-17T10:59:20.530Z,15.12
2022-11-17T11:01:52.115Z,15.15
2022-11-17T11:04:41.416Z,15.42
2022-11-17T11:07:15.082Z,15.55
2022-11-17T11:10:03.009Z,15.17
2022-11-17T11:12:42.293Z,15.07
2022-11-17T11:15:20.667Z,14.66
2022-11-17T11:17:49.813Z,15.15
2022-11-17T11:20:24.259Z,15.07
2022-11-17T11:23:31.775Z,15.23
2022-11-17T11:26:23.655Z,14.56
2022-11-17T11:29:13.470Z,14.65
2022-11-17T11:31:57.943Z,14.42
2022-11-17T11:34:41.708Z,15.26
2022-11-17T11:37:12.756Z,14.93
2022-11-17T11:39:58.897Z,14.88
2022-11-17T11:42:48.726Z,15.01
2022-11-17T11:45:22.743Z,15.38
2022-11-17T11:48:22.803Z,15.27
2022-11-17T11:50:54.993Z,15.25
2022-11-17T11:53:37.380Z,15.16
2022-11-17T11:56:30.587Z,15.07
2022-11-17T11:59:34.210Z,15.19
2022-11-17T12:02:12.523Z,15.46
2022-11-17T12:05:10.608Z,14.48
2022-11-17T12:08:25.668Z,14.95
2022-11-17T12:10:59.415Z,14.94
2022-11-17T12:13:28.318Z,14.93
2022-11-17T12:16:18.605Z,14.79
2022-11-17T12:18:47.141Z,15.01
2022-11-17T12:21:23.896Z,14.97
2022-11-17T12:24:07.306Z,15.19
2022-11-17T12:26:36.847Z,15.31
2022-11-17T12:29:20.649Z,15.34
2022-11-17T12:31:54.849Z,15.32
2022-11-17T12:34:26.531Z,15.38
2022-11-17T12:37:14.643Z,15.29
2022-11-17T12:39:59.845Z,15.37
2022-11-17T12:42:30.624Z,15.50
2022-11-17T12:45:10.131Z,15.56
2022-11-17T12:47:44.397Z,15.70
2022-11-17T12:50:19.937Z,15.48
2022-11-17T12:53:14.418Z,15.70
2022-11-17T12:55:51.288Z,15.23
2022-11-17T12:58:25.913Z,15.44
2022-11-17T13:01:18.053Z,15.77
2022-11-17T13:04:01.372Z,15.69
2022-11-17T13:06:37.223Z,15.43
2022-11-17T13:09:11.236Z,15.50
2022-11-17T13:11:39.666Z,15.36
2022-11-17T13:14:14.758Z,15.51
2022-11-17T13:16:49.605Z,15.85
2022-11-17T13:19:33.387Z,15.23
2022-11-17T13:22:04.347Z,15.25
2022-11-17T13:24:38.433Z,15.17
2022-11-17T13:27:23.166Z,15.58
2022-11-17T13:29:52.799Z,15.59
2022-11-17T13:32:24.035Z,15.51
2022-11-17T13:34:57.593Z,15.34
2022-11-17T13:37:30.334Z,15.69
2022-11-17T13:39:58.838Z,15.56
2022-11-17T13:42:30.883Z,15.63
2022-11-17T13:45:05.350Z,15.97
2022-11-17T13:47:37.565Z,15.62
2022-11-17T13:50:29.403Z,15.70
2022-11-17T13:53:22.733Z,15.97
2022-11-17T13:55:52.022Z,16.04
2022-11-17T13:58:37.220Z,15.98
2022-11-17T14:01:05.804Z,16.14
2022-11-17T14:03:39.714Z,16.19
2022-11-17T14:06:10.962Z,15.99
2022-11-17T14:08:40.690Z,15.74
2022-11-17T14:11:12.288Z,16.07
2022-11-17T14:13:52.352Z,15.85
2022-11-17T14:16:25.416Z,15.93
2022-11-17T14:18:56.994Z,15.87
2022-11-17T14:21:26.030Z,15.84
2022-11-17T14:24:06.822Z,16.02
2022-11-17T14:26:41.066Z,15.90
2022-11-17T14:29:12.056Z,15.93
2022-11-17T14:31:40.658Z,15.94
2022-11-17T14:34:09.362Z,16.02
2022-11-17T14:36:39.455Z,16.13
2022-11-17T14:39:16.684Z,15.67
2022-11-17T14:41:47.312Z,16.08
2022-11-17T14:44:16.725Z,15.90
2022-11-17T14:46:45.216Z,15.70
2022-11-17T14:49:14.902Z,16.10
2022-11-17T14:51:43.732Z,15.57
2022-11-17T14:54:12.067Z,15.79
2022-11-17T14:56:40.480Z,15.99
2022-11-17T14:59:10.997Z,16.12
2022-11-17T15:01:39.793Z,16.13
2022-11-17T15:04:35.162Z,15.99
2022-11-17T15:07:02.832Z,15.94
2022-11-17T15:09:32.457Z,15.80
2022-11-17T15:12:00.901Z,16.09
2022-11-17T15:14:29.375Z,15.93
2022-11-17T15:16:57.893Z,15.73
2022-11-17T15:19:26.433Z,15.91
2022-11-17T15:21:54.935Z,15.66
2022-11-17T15:24:23.349Z,15.96
2022-11-17T15:26:52.822Z,15.96
2022-11-17T15:29:22.437Z,16.08
2022-11-17T15:31:51.005Z,15.85
2022-11-17T15:34:20.592Z,15.91
2022-11-17T15:36:49.812Z,15.57
2022-11-17T15:39:19.148Z,15.86
2022-11-17T15:41:48.824Z,15.94
2022-11-17T15:44:18.811Z,15.83
2022-11-17T15:46:48.069Z,15.99
2022-11-17T15:49:17.255Z,16.18
2022-11-17T15:51:46.026Z,16.15
2022-11-17T15:54:19.982Z,16.08
2022-11-17T15:56:50.755Z,16.10
2022-11-17T15:59:19.624Z,15.91
2022-11-17T16:01:48.872Z,15.95
2022-11-17T16:04:17.456Z,15.83
2022-11-17T16:06:47.038Z,15.89
2022-11-17T16:09:16.120Z,15.89
2022-11-17T16:11:45.154Z,15.92
2022-11-17T16:14:17.406Z,15.90
2022-11-17T16:16:47.878Z,15.94
2022-11-17T16:19:16.677Z,15.81
2022-11-17T16:21:45.261Z,15.71
2022-11-17T16:24:13.659Z,15.58
2022-11-17T16:26:42.146Z,15.73
2022-11-17T16:29:10.749Z,15.65
2022-11-17T16:31:39.829Z,15.66
2022-11-17T16:34:14.122Z,15.56
2022-11-17T16:36:43.852Z,15.54
2022-11-17T16:39:16.546Z,15.41
2022-11-17T16:41:45.736Z,15.47
2022-11-17T16:44:18.674Z,15.48
2022-11-17T16:46:49.671Z,15.49
2022-11-17T16:49:19.515Z,15.56
2022-11-17T16:51:50.355Z,15.54
2022-11-17T16:54:19.171Z,15.57
2022-11-17T16:56:48.228Z,15.47
2022-11-17T16:59:17.210Z,15.34
2022-11-17T17:01:46.243Z,15.18
2022-11-17T17:04:14.766Z,15.19
2022-11-17T17:06:44.337Z,15.20
2022-11-17T17:09:14.917Z,15.21
2022-11-17T17:11:43.664Z,15.17
2022-11-17T17:14:13.904Z,15.19
2022-11-17T17:16:42.582Z,15.01
2022-11-17T17:19:12.388Z,15.06
2022-11-17T17:21:42.424Z,15.01
2022-11-17T17:24:12.114Z,14.92
2022-11-17T17:26:41.084Z,14.74
2022-11-17T17:29:10.743Z,14.83
2022-11-17T17:31:41.530Z,14.65
2022-11-17T17:34:12.500Z,14.72
2022-11-17T17:36:40.917Z,14.75
2022-11-17T17:39:14.753Z,14.69
2022-11-17T17:41:44.534Z,14.81
2022-11-17T17:44:16.348Z,14.93
2022-11-17T17:46:45.517Z,14.95
2022-11-17T17:49:14.649Z,14.78
2022-11-17T17:51:44.412Z,14.74
2022-11-17T17:54:17.009Z,14.65
2022-11-17T17:56:46.185Z,14.74
2022-11-17T17:59:15.813Z,14.63
2022-11-17T18:01:46.140Z,14.78
2022-11-17T18:04:16.580Z,14.73
2022-11-17T18:06:49.020Z,14.72
2022-11-17T18:09:20.486Z,14.61
2022-11-17T18:11:50.776Z,14.51
2022-11-17T18:14:24.044Z,14.59
2022-11-17T18:16:53.619Z,14.67
2022-11-17T18:19:25.743Z,14.45
2022-11-17T18:21:57.053Z,14.54
2022-11-17T18:24:25.427Z,14.50
2022-11-17T18:26:53.809Z,14.60
2022-11-17T18:29:22.400Z,14.63
2022-11-17T18:31:50.899Z,14.63
2022-11-17T18:34:22.495Z,14.70
2022-11-17T18:36:53.140Z,14.67
2022-11-17T18:39:22.090Z,14.61
2022-11-17T18:41:50.533Z,14.63
2022-11-17T18:44:19.612Z,14.50
2022-11-17T18:46:48.785Z,14.63
2022-11-17T18:49:17.542Z,14.55
2022-11-17T18:51:46.252Z,14.53
2022-11-17T18:54:15.718Z,14.58
2022-11-17T18:56:45.271Z,14.45
2022-11-17T18:59:14.442Z,14.43
2022-11-17T19:01:43.553Z,14.35
2022-11-17T19:04:14.097Z,14.47
2022-11-17T19:06:42.852Z,14.45
2022-11-17T19:09:11.864Z,14.35
2022-11-17T19:11:40.492Z,14.27
2022-11-17T19:14:09.301Z,14.26
2022-11-17T19:16:44.149Z,14.24
2022-11-17T19:19:14.413Z,14.27
2022-11-17T19:21:43.385Z,14.30
2022-11-17T19:24:12.374Z,14.38
2022-11-17T19:26:41.072Z,14.31
2022-11-17T19:29:16.791Z,14.38
2022-11-17T19:31:46.945Z,14.37
2022-11-17T19:34:16.437Z,14.37
2022-11-17T19:36:45.196Z,14.33
2022-11-17T19:39:14.664Z,14.28
2022-11-17T19:41:45.288Z,14.37
2022-11-17T19:44:13.994Z,14.45
2022-11-17T19:46:43.446Z,14.35
2022-11-17T19:49:12.499Z,14.40
2022-11-17T19:51:41.902Z,14.05
2022-11-17T19:54:12.444Z,14.11
2022-11-17T19:56:40.858Z,14.08
2022-11-17T19:59:14.184Z,14.21
2022-11-17T20:01:45.537Z,14.07
2022-11-17T20:04:14.332Z,14.09
2022-11-17T20:06:43.083Z,14.06
2022-11-17T20:09:14.605Z,14.14
2022-11-17T20:11:43.594Z,14.16
2022-11-17T20:14:12.200Z,14.24
2022-11-17T20:16:40.580Z,14.13
2022-11-17T20:19:09.352Z,14.21
2022-11-17T20:21:37.812Z,14.19
2022-11-17T20:24:06.560Z,14.08
2022-11-17T20:26:36.016Z,14.11
2022-11-17T20:29:04.723Z,14.01
2022-11-17T20:31:35.461Z,13.97
2022-11-17T20:34:05.500Z,13.92
2022-11-17T20:36:35.489Z,13.89
2022-11-17T20:39:06.526Z,13.92
2022-11-17T20:41:35.923Z,13.91
2022-11-17T20:44:04.514Z,13.80
2022-11-17T20:46:33.023Z,13.62
2022-11-17T20:49:01.465Z,13.55
2022-11-17T20:51:29.879Z,13.64
2022-11-17T20:53:58.293Z,13.54
2022-11-17T20:56:26.763Z,13.53
2022-11-17T20:58:56.123Z,13.62
2022-11-17T21:01:24.645Z,13.57
2022-11-17T21:03:53.115Z,13.53
2022-11-17T21:06:24.501Z,13.46
2022-11-17T21:08:52.884Z,13.39
2022-11-17T21:11:42.196Z,13.44
2022-11-17T21:14:13.414Z,13.51
2022-11-17T21:16:46.638Z,13.52
2022-11-17T21:19:16.915Z,13.52
2022-11-17T21:21:45.894Z,13.45
2022-11-17T21:24:14.605Z,13.38
2022-11-17T21:26:43.193Z,13.43
2022-11-17T21:29:11.635Z,13.56
2022-11-17T21:31:40.250Z,13.64
2022-11-17T21:34:16.392Z,13.55
2022-11-17T21:36:44.831Z,13.47
2022-11-17T21:39:18.343Z,13.36
2022-11-17T21:41:47.292Z,13.37
2022-11-17T21:44:15.767Z,13.31
2022-11-17T21:46:44.151Z,13.27
2022-11-17T21:49:12.790Z,13.28
2022-11-17T21:51:41.249Z,13.28
2022-11-17T21:54:12.565Z,13.43
2022-11-17T21:56:41.012Z,13.38
2022-11-17T21:59:12.559Z,13.36
2022-11-17T22:01:41.133Z,13.45
2022-11-17T22:04:11.797Z,13.25
2022-11-17T22:06:40.166Z,13.15
2022-11-17T22:09:08.953Z,13.06
2022-11-17T22:11:39.012Z,13.06
2022-11-17T22:14:09.732Z,13.02
2022-11-17T22:16:46.662Z,13.07
2022-11-17T22:19:17.160Z,13.01
2022-11-17T22:21:48.465Z,13.09
2022-11-17T22:24:17.658Z,13.08
2022-11-17T22:26:46.230Z,13.00
2022-11-17T22:29:20.404Z,13.04
2022-11-17T22:31:50.713Z,13.03
2022-11-17T22:34:19.429Z,12.98
2022-11-17T22:36:47.875Z,13.05
2022-11-17T22:39:16.845Z,13.19
2022-11-17T22:41:45.513Z,13.08
2022-11-17T22:44:15.377Z,13.14
2022-11-17T22:46:43.958Z,13.17
2022-11-17T22:49:12.905Z,13.15
2022-11-17T22:52:00.049Z,13.16
2022-11-17T22:54:28.478Z,13.18
2022-11-17T22:56:57.925Z,13.22
2022-11-17T22:59:27.560Z,13.26
2022-11-17T23:01:56.292Z,13.26
2022-11-17T23:04:24.791Z,13.25
2022-11-17T23:06:53.302Z,13.22
2022-11-17T23:09:21.768Z,13.27
2022-11-17T23:11:50.150Z,13.21
2022-11-17T23:14:18.795Z,13.13
2022-11-17T23:16:47.184Z,13.18
2022-11-17T23:19:16.266Z,13.32
2022-11-17T23:21:44.868Z,13.29
2022-11-17T23:24:14.781Z,13.22
2022-11-17T23:26:43.337Z,13.29
2022-11-17T23:29:11.815Z,13.22
2022-11-17T23:31:40.453Z,13.15
2022-11-17T23:34:10.755Z,13.17
2022-11-17T23:36:39.654Z,13.16
2022-11-17T23:39:08.371Z,13.17
2022-11-17T23:41:37.454Z,13.32
2022-11-17T23:44:06.569Z,13.17
2022-11-17T23:46:35.285Z,13.18
2022-11-17T23:49:06.028Z,13.20
2022-11-17T23:51:34.873Z,13.10
2022-11-17T23:54:03.276Z,13.13
2022-11-17T23:56:33.639Z,13.20
2022-11-17T23:59:02.461Z,13.27
